Time;durP1;ratioP1;P1;durP2;ratioP2;P2;SDS_P1;SDS_P2;PMS_P1;PMS_P2;Temp;Humidity;BMP_temperature;BMP_pressure;BME280_temperature;BME280_humidity;BME280_pressure;Samples;Min_cycle;Max_cycle;Signal;HPM_P1;HPM_P2
2022/06/18 00:01:35;;;;;;;9.93;6.87;;;19.90;99.90;;;;;;5024324;28;20222;-85
2022/06/18 00:04:11;;;;;;;9.97;6.83;;;19.90;99.90;;;;;;5024418;28;20733;-86
2022/06/18 00:06:50;;;;;;;11.33;6.67;;;19.80;99.90;;;;;;5026276;28;20309;-85
2022/06/18 00:09:20;;;;;;;8.87;6.53;;;19.70;99.90;;;;;;5026519;28;20249;-85
2022/06/18 00:14:39;;;;;;;8.13;6.90;;;19.70;99.90;;;;;;5026229;28;20255;-84
2022/06/18 00:17:16;;;;;;;7.60;6.47;;;19.70;99.90;;;;;;5024742;28;20225;-87
2022/06/18 00:19:43;;;;;;;8.27;5.97;;;19.70;99.90;;;;;;5025011;28;20233;-86
2022/06/18 00:22:12;;;;;;;7.70;6.27;;;19.70;99.90;;;;;;5026834;28;20293;-85
2022/06/18 00:24:38;;;;;;;9.43;5.93;;;19.70;99.90;;;;;;5025450;28;20226;-85
2022/06/18 00:27:04;;;;;;;9.17;6.33;;;19.70;99.90;;;;;;5008715;28;20934;-85
2022/06/18 00:29:29;;;;;;;9.27;7.20;;;19.70;99.90;;;;;;5026482;28;20191;-85
2022/06/18 00:31:55;;;;;;;8.07;6.93;;;19.60;99.90;;;;;;5041775;28;20214;-85
2022/06/18 00:34:21;;;;;;;7.43;5.93;;;19.60;99.90;;;;;;5018337;28;20230;-86
2022/06/18 00:36:47;;;;;;;9.77;6.90;;;19.60;99.90;;;;;;5025398;28;20218;-84
2022/06/18 00:39:16;;;;;;;8.27;6.43;;;19.60;99.90;;;;;;5008673;28;20201;-85
2022/06/18 00:41:44;;;;;;;8.57;6.30;;;19.60;99.90;;;;;;5025713;28;20206;-87
2022/06/18 00:44:32;;;;;;;5.67;5.13;;;19.50;99.90;;;;;;5021619;28;20376;-86
2022/06/18 00:47:36;;;;;;;7.67;5.20;;;19.50;99.90;;;;;;5023635;28;20226;-86
2022/06/18 00:50:27;;;;;;;6.40;5.17;;;19.40;99.90;;;;;;5007348;28;20885;-84
2022/06/18 00:53:03;;;;;;;6.43;5.43;;;19.30;99.90;;;;;;5026358;28;20249;-85
2022/06/18 00:55:40;;;;;;;8.93;6.23;;;19.20;99.90;;;;;;5024243;28;20225;-84
2022/06/18 00:58:16;;;;;;;6.83;5.50;;;19.10;99.90;;;;;;5057945;28;20579;-84
2022/06/18 01:00:46;;;;;;;8.37;5.60;;;19.10;99.90;;;;;;5026154;28;20225;-88
2022/06/18 01:03:29;;;;;;;8.87;5.57;;;19.00;99.90;;;;;;5025181;28;20261;-88
2022/06/18 01:05:57;;;;;;;10.30;5.87;;;18.90;99.90;;;;;;5034273;28;20198;-84
2022/06/18 01:08:26;;;;;;;8.27;6.17;;;18.90;99.90;;;;;;5024411;28;20230;-85
2022/06/18 01:10:57;;;;;;;10.33;7.20;;;18.80;99.90;;;;;;5025575;28;20222;-86
2022/06/18 01:13:28;;;;;;;9.03;6.23;;;18.80;99.90;;;;;;5025068;28;20222;-86
2022/06/18 01:15:55;;;;;;;8.70;7.27;;;18.70;99.90;;;;;;5024825;28;20225;-84
2022/06/18 01:18:21;;;;;;;10.87;7.53;;;18.70;99.90;;;;;;5040388;28;20749;-85
2022/06/18 01:21:28;;;;;;;13.17;7.57;;;18.60;99.90;;;;;;5025225;28;20497;-86
2022/06/18 01:24:19;;;;;;;10.67;7.10;;;18.60;99.90;;;;;;5024185;28;20249;-85
2022/06/18 01:26:48;;;;;;;9.37;6.90;;;18.50;99.90;;;;;;5013511;28;20208;-85
2022/06/18 01:29:14;;;;;;;15.60;8.00;;;18.50;99.90;;;;;;5024891;28;20215;-84
2022/06/18 01:31:40;;;;;;;9.83;7.13;;;18.40;99.90;;;;;;5007849;28;20230;-85
2022/06/18 01:34:08;;;;;;;11.20;6.90;;;18.30;99.90;;;;;;5024244;28;20226;-86
2022/06/18 01:36:36;;;;;;;11.50;7.80;;;18.30;99.90;;;;;;5025124;28;20218;-84
2022/06/18 01:39:05;;;;;;;9.17;7.30;;;18.10;99.90;;;;;;5024737;28;20198;-87
2022/06/18 01:41:50;;;;;;;11.70;7.57;;;18.00;99.90;;;;;;5057628;28;20558;-86
2022/06/18 01:44:28;;;;;;;11.93;7.33;;;18.00;99.90;;;;;;5024753;28;20230;-84
2022/06/18 01:46:59;;;;;;;12.97;8.13;;;17.90;99.90;;;;;;5023549;28;20222;-84
2022/06/18 01:49:36;;;;;;;8.83;6.53;;;17.80;99.90;;;;;;5024894;28;20365;-85
2022/06/18 01:52:05;;;;;;;9.87;7.03;;;17.70;99.90;;;;;;5024982;28;20220;-85
2022/06/18 01:54:47;;;;;;;17.03;7.50;;;17.60;99.90;;;;;;5024408;28;20225;-84
2022/06/18 01:57:22;;;;;;;12.07;6.93;;;17.60;99.90;;;;;;5023707;28;20186;-84
2022/06/18 01:59:56;;;;;;;7.80;6.63;;;17.50;99.90;;;;;;5024046;28;20579;-85
2022/06/18 02:02:22;;;;;;;11.63;6.73;;;17.40;99.90;;;;;;5023592;28;20277;-84
2022/06/18 02:04:49;;;;;;;9.47;7.20;;;17.40;99.90;;;;;;5023187;28;20246;-85
2022/06/18 02:07:17;;;;;;;11.70;7.43;;;17.40;99.90;;;;;;5007183;28;20222;-86
2022/06/18 02:09:54;;;;;;;10.53;7.00;;;17.30;99.90;;;;;;5024110;28;20268;-84
2022/06/18 02:12:24;;;;;;;9.50;6.83;;;17.30;99.90;;;;;;5023811;28;20300;-86
2022/06/18 02:14:55;;;;;;;10.40;7.47;;;17.20;99.90;;;;;;5024010;28;20201;-84
2022/06/18 02:17:22;;;;;;;11.50;6.20;;;17.10;99.90;;;;;;5024127;28;20233;-84
2022/06/18 02:19:57;;;;;;;10.13;6.40;;;17.10;99.90;;;;;;5024323;28;20253;-84
2022/06/18 02:22:29;;;;;;;14.80;6.27;;;17.00;99.90;;;;;;5023158;28;20231;-84
2022/06/18 02:24:56;;;;;;;12.17;6.80;;;17.00;99.90;;;;;;5021829;28;20222;-85
2022/06/18 02:27:23;;;;;;;13.80;7.23;;;16.90;99.90;;;;;;5021758;28;20245;-86
2022/06/18 02:29:49;;;;;;;11.33;7.43;;;16.90;99.90;;;;;;5021964;28;20187;-84
2022/06/18 02:32:34;;;;;;;18.63;8.63;;;16.90;99.90;;;;;;5005331;28;20229;-85
2022/06/18 02:35:00;;;;;;;14.60;6.83;;;16.80;99.90;;;;;;5022994;28;20879;-84
2022/06/18 02:37:30;;;;;;;9.67;7.53;;;16.80;99.90;;;;;;5024322;28;20218;-85
2022/06/18 02:40:02;;;;;;;14.60;7.50;;;16.80;99.90;;;;;;5023548;28;20214;-84
2022/06/18 02:42:32;;;;;;;9.63;7.83;;;16.70;99.90;;;;;;5024886;28;20214;-84
2022/06/18 02:44:58;;;;;;;13.47;6.47;;;16.70;99.90;;;;;;5056182;28;20206;-87
2022/06/18 02:47:24;;;;;;;11.33;7.40;;;16.70;99.90;;;;;;5023510;28;20197;-85
2022/06/18 02:50:04;;;;;;;9.83;6.13;;;16.60;99.90;;;;;;5031119;28;20230;-83
2022/06/18 02:52:38;;;;;;;10.90;7.47;;;16.60;99.90;;;;;;5039516;28;20325;-84
2022/06/18 02:55:29;;;;;;;12.30;8.23;;;16.60;99.90;;;;;;5024345;28;20291;-86
2022/06/18 02:58:00;;;;;;;11.60;7.27;;;16.60;99.90;;;;;;5023773;28;20687;-84
2022/06/18 03:00:26;;;;;;;18.70;7.67;;;16.60;99.90;;;;;;5022702;28;20227;-84
2022/06/18 03:02:52;;;;;;;11.73;6.97;;;16.50;99.90;;;;;;5023583;28;20699;-85
2022/06/18 03:05:25;;;;;;;11.27;7.40;;;16.50;99.90;;;;;;5023523;28;20326;-83
2022/06/18 03:07:51;;;;;;;12.27;7.20;;;16.50;99.90;;;;;;5026189;28;20222;-86
2022/06/18 03:13:02;;;;;;;13.33;7.30;;;16.50;99.90;;;;;;5027182;28;20214;-85
2022/06/18 03:15:30;;;;;;;10.27;6.70;;;16.60;99.90;;;;;;5026444;28;20218;-85
2022/06/18 03:17:59;;;;;;;12.47;6.87;;;16.60;99.90;;;;;;5043582;28;20191;-83
2022/06/18 03:20:41;;;;;;;12.97;6.97;;;16.60;99.90;;;;;;5026361;28;20214;-84
2022/06/18 03:23:15;;;;;;;10.10;6.80;;;16.60;99.90;;;;;;5026853;28;20257;-85
2022/06/18 03:25:41;;;;;;;10.27;6.37;;;16.70;99.90;;;;;;5027745;28;20570;-84
2022/06/18 03:28:09;;;;;;;8.93;6.53;;;16.70;99.90;;;;;;5027717;28;20257;-87
2022/06/18 03:30:35;;;;;;;10.67;6.70;;;16.70;99.90;;;;;;5027693;28;20218;-84
2022/06/18 03:33:00;;;;;;;8.53;7.10;;;16.70;99.90;;;;;;5006972;28;20195;-85
2022/06/18 03:35:26;;;;;;;9.00;6.70;;;16.80;99.90;;;;;;5023876;28;20772;-87
2022/06/18 03:37:52;;;;;;;8.87;6.70;;;16.80;99.90;;;;;;5025135;28;20238;-84
2022/06/18 03:40:17;;;;;;;7.57;6.73;;;16.80;99.90;;;;;;5026219;28;20730;-85
2022/06/18 03:42:43;;;;;;;10.03;6.70;;;16.90;99.90;;;;;;5025877;28;20287;-85
2022/06/18 03:45:09;;;;;;;12.37;7.27;;;16.90;99.90;;;;;;5026665;28;20305;-85
2022/06/18 03:47:35;;;;;;;12.97;5.50;;;16.90;99.90;;;;;;5027556;28;20248;-84
2022/06/18 03:50:01;;;;;;;14.63;6.80;;;17.00;99.90;;;;;;5025470;28;20218;-84
2022/06/18 03:52:27;;;;;;;10.70;6.10;;;17.00;99.90;;;;;;5008821;28;20233;-86
2022/06/18 03:54:52;;;;;;;10.20;5.43;;;17.10;99.90;;;;;;5026945;28;20238;-84
2022/06/18 03:57:19;;;;;;;7.47;5.87;;;17.10;99.90;;;;;;5034678;28;20222;-85
2022/06/18 03:59:45;;;;;;;15.10;6.53;;;17.10;99.90;;;;;;5026977;28;20225;-86
2022/06/18 04:02:10;;;;;;;6.40;5.40;;;17.30;99.90;;;;;;5026703;28;20300;-84
2022/06/18 04:04:36;;;;;;;6.03;5.23;;;17.30;99.90;;;;;;5025619;28;20242;-84
2022/06/18 04:07:02;;;;;;;10.67;5.60;;;17.30;99.90;;;;;;5025729;28;20975;-85
2022/06/18 04:09:28;;;;;;;9.03;5.70;;;17.30;99.90;;;;;;5025306;28;21119;-84
2022/06/18 04:11:54;;;;;;;12.60;6.20;;;17.40;99.90;;;;;;5026584;28;20205;-86
2022/06/18 04:14:19;;;;;;;10.93;6.20;;;17.40;99.90;;;;;;5008482;28;20352;-84
2022/06/18 04:16:45;;;;;;;9.17;5.27;;;17.40;99.90;;;;;;5024941;28;20219;-85
2022/06/18 04:19:11;;;;;;;12.57;5.00;;;17.50;99.90;;;;;;5026211;28;20222;-84
2022/06/18 04:21:36;;;;;;;6.47;5.33;;;17.60;99.90;;;;;;5025257;28;20609;-85
2022/06/18 04:24:02;;;;;;;8.20;4.87;;;17.60;99.90;;;;;;5026641;28;20663;-85
2022/06/18 04:26:28;;;;;;;10.53;5.30;;;17.80;99.90;;;;;;5026847;28;20226;-86
2022/06/18 04:28:54;;;;;;;12.57;6.00;;;17.90;99.90;;;;;;5025332;28;20226;-85
2022/06/18 04:31:19;;;;;;;6.83;4.73;;;18.10;99.90;;;;;;5024698;28;20211;-84
2022/06/18 04:33:45;;;;;;;9.10;5.20;;;18.10;99.90;;;;;;5025403;28;20288;-85
2022/06/18 04:36:36;;;;;;;9.00;5.30;;;18.30;99.90;;;;;;5025411;28;20194;-85
2022/06/18 04:39:03;;;;;;;12.93;6.13;;;18.40;99.90;;;;;;5025047;28;20666;-86
2022/06/18 04:41:28;;;;;;;8.53;5.87;;;18.60;99.90;;;;;;5025465;28;20682;-86
2022/06/18 04:43:55;;;;;;;6.77;4.80;;;18.60;99.90;;;;;;5024780;28;20258;-85
2022/06/18 04:46:21;;;;;;;13.13;5.77;;;18.70;99.90;;;;;;5024312;28;20223;-86
2022/06/18 04:48:47;;;;;;;6.23;4.60;;;18.60;99.90;;;;;;5025467;28;20226;-85
2022/06/18 04:51:13;;;;;;;5.17;4.67;;;18.70;99.90;;;;;;5032148;28;20466;-84
2022/06/18 04:53:38;;;;;;;8.10;4.43;;;18.70;99.90;;;;;;5025122;28;21042;-84
2022/06/18 04:56:05;;;;;;;5.93;4.27;;;18.60;99.90;;;;;;5024599;28;20309;-84
2022/06/18 04:58:31;;;;;;;4.17;3.83;;;18.60;99.90;;;;;;5024443;28;20223;-84
2022/06/18 05:00:57;;;;;;;8.43;4.50;;;18.50;99.90;;;;;;5025366;28;20290;-84
2022/06/18 05:03:23;;;;;;;5.07;3.83;;;18.50;99.90;;;;;;5024364;28;20238;-85
2022/06/18 05:05:48;;;;;;;9.33;3.60;;;18.50;99.90;;;;;;5025477;28;20195;-86
2022/06/18 05:08:14;;;;;;;8.80;4.17;;;18.40;99.90;;;;;;5025862;28;20249;-83
2022/06/18 05:10:40;;;;;;;5.77;4.17;;;18.40;99.90;;;;;;5024193;28;20283;-84
2022/06/18 05:13:06;;;;;;;9.00;4.37;;;18.60;99.90;;;;;;5024587;28;20225;-83
2022/06/18 05:15:33;;;;;;;5.37;3.80;;;18.90;99.90;;;;;;5055649;28;20214;-84
2022/06/18 05:17:59;;;;;;;8.63;3.63;;;19.40;99.90;;;;;;5025858;28;20201;-85
2022/06/18 05:20:25;;;;;;;8.90;3.27;;;19.80;99.90;;;;;;5025181;28;20191;-84
2022/06/18 05:22:51;;;;;;;4.97;3.70;;;20.40;99.90;;;;;;5024624;28;20935;-83
2022/06/18 05:25:18;;;;;;;5.50;3.23;;;20.50;99.90;;;;;;5025964;28;20238;-85
2022/06/18 05:27:46;;;;;;;4.10;3.23;;;20.50;99.90;;;;;;5023867;28;20215;-84
2022/06/18 05:30:17;;;;;;;3.30;2.27;;;20.90;99.90;;;;;;5055862;28;20241;-84
2022/06/18 05:32:43;;;;;;;4.53;2.70;;;21.30;99.90;;;;;;5025605;28;20727;-86
2022/06/18 05:35:10;;;;;;;5.07;2.90;;;22.00;99.90;;;;;;5023340;28;20257;-87
2022/06/18 05:37:38;;;;;;;5.23;3.23;;;22.60;99.90;;;;;;5057323;28;20297;-86
2022/06/18 05:40:05;;;;;;;3.83;2.80;;;23.90;99.90;;;;;;5023416;28;20305;-86
2022/06/18 05:42:31;;;;;;;3.70;2.60;;;24.20;99.90;;;;;;5006923;28;20709;-86
2022/06/18 05:44:57;;;;;;;5.73;2.27;;;23.70;99.90;;;;;;5025539;28;20222;-85
2022/06/18 05:47:27;;;;;;;2.88;2.25;;;24.20;99.90;;;;;;5023746;28;20693;-86
2022/06/18 05:49:53;;;;;;;4.53;2.83;;;23.40;99.90;;;;;;5023462;28;20222;-85
2022/06/18 05:52:20;;;;;;;3.17;2.92;;;22.60;99.90;;;;;;5023903;28;20986;-83
2022/06/18 05:54:46;;;;;;;1.63;1.52;;;22.90;99.90;;;;;;5023615;28;20215;-86
2022/06/18 05:57:13;;;;;;;5.15;2.25;;;22.50;99.90;;;;;;5022561;28;20195;-84
2022/06/18 05:59:39;;;;;;;2.72;1.58;;;22.20;99.90;;;;;;5023607;28;20273;-83
2022/06/18 06:02:06;;;;;;;2.83;1.65;;;21.90;99.90;;;;;;5006270;28;21366;-87
2022/06/18 06:04:32;;;;;;;3.53;1.83;;;21.90;99.90;;;;;;5024545;28;20242;-84
2022/06/18 06:06:57;;;;;;;1.10;1.00;;;21.90;99.90;;;;;;5023704;28;20214;-89
2022/06/18 06:12:10;;;;;;;3.40;1.27;;;22.10;99.90;;;;;;5024465;28;20231;-82
2022/06/18 06:14:39;;;;;;;4.00;1.15;;;22.80;99.90;;;;;;5023079;28;20252;-86
2022/06/18 06:17:10;;;;;;;2.50;1.23;;;22.70;99.90;;;;;;5025131;28;20333;-90
2022/06/18 06:19:36;;;;;;;4.93;1.20;;;22.50;99.90;;;;;;5056281;28;20312;-91
2022/06/18 06:22:02;;;;;;;2.45;0.98;;;23.00;99.90;;;;;;5021280;28;20214;-91
2022/06/18 06:24:28;;;;;;;1.70;1.27;;;23.10;99.90;;;;;;5023545;28;20222;-90
2022/06/18 06:26:54;;;;;;;1.90;1.20;;;23.10;99.90;;;;;;5040419;28;20272;-86
2022/06/18 06:29:19;;;;;;;1.30;1.15;;;23.50;99.90;;;;;;5023564;28;20233;-85
2022/06/18 06:31:45;;;;;;;1.48;1.15;;;23.00;99.90;;;;;;5023341;28;20214;-86
2022/06/18 06:34:11;;;;;;;1.83;1.65;;;22.70;99.90;;;;;;5023600;28;20219;-82
2022/06/18 06:36:37;;;;;;;1.20;1.10;;;23.90;99.90;;;;;;5022758;28;20368;-81
2022/06/18 06:39:03;;;;;;;1.30;1.20;;;23.00;99.90;;;;;;5021701;28;20179;-81
2022/06/18 06:41:30;;;;;;;2.45;1.58;;;24.70;99.90;;;;;;5025607;28;20206;-82
2022/06/18 06:43:56;;;;;;;4.10;1.58;;;25.40;99.90;;;;;;5028058;28;20261;-83
2022/06/18 06:46:22;;;;;;;4.03;1.40;;;25.40;99.90;;;;;;5026393;28;20211;-85
2022/06/18 06:48:48;;;;;;;3.33;1.38;;;24.10;99.90;;;;;;5026895;28;20672;-83
2022/06/18 06:51:18;;;;;;;3.50;1.33;;;25.00;99.90;;;;;;5028457;28;20202;-85
2022/06/18 06:53:44;;;;;;;2.70;1.40;;;25.20;99.90;;;;;;5027260;28;20264;-81
2022/06/18 06:58:55;;;;;;;1.20;1.08;;;23.80;99.90;;;;;;5026192;28;20299;-81
2022/06/18 07:01:21;;;;;;;1.90;1.30;;;23.30;99.90;;;;;;5035552;28;20230;-89
2022/06/18 07:03:47;;;;;;;1.38;1.17;;;23.30;99.90;;;;;;5028041;28;20246;-84
2022/06/18 07:06:13;;;;;;;2.30;1.33;;;23.30;99.90;;;;;;5026972;28;20199;-84
2022/06/18 07:08:40;;;;;;;1.25;1.15;;;23.20;99.90;;;;;;5027848;28;21140;-82
2022/06/18 07:11:06;;;;;;;2.67;1.17;;;23.30;99.90;;;;;;5027804;28;20214;-86
2022/06/18 07:13:32;;;;;;;2.95;1.60;;;22.70;99.90;;;;;;5017130;28;20218;-86
2022/06/18 07:15:58;;;;;;;1.52;1.30;;;23.30;99.90;;;;;;5027696;28;20784;-84
2022/06/18 07:18:31;;;;;;;1.67;1.38;;;22.40;99.90;;;;;;5027218;28;20218;-86
2022/06/18 07:21:03;;;;;;;2.38;1.70;;;21.40;99.90;;;;;;5027610;28;20207;-81
2022/06/18 07:23:30;;;;;;;1.63;1.20;;;21.00;99.90;;;;;;5027339;28;20229;-83
2022/06/18 07:25:55;;;;;;;4.10;1.70;;;21.30;99.90;;;;;;5027776;28;20594;-83
2022/06/18 07:28:22;;;;;;;3.88;1.60;;;21.30;99.90;;;;;;5026687;28;20214;-85
2022/06/18 07:30:48;;;;;;;3.13;2.20;;;21.40;99.90;;;;;;5027109;28;20749;-82
2022/06/18 07:33:17;;;;;;;2.35;1.40;;;21.30;99.90;;;;;;5027887;28;20191;-86
2022/06/18 07:35:43;;;;;;;2.13;1.30;;;21.00;99.90;;;;;;5028015;28;20187;-83
2022/06/18 07:38:09;;;;;;;1.17;1.08;;;21.00;99.90;;;;;;5027500;28;20233;-85
2022/06/18 07:40:52;;;;;;;2.58;1.23;;;21.40;99.90;;;;;;5025487;28;20229;-84
2022/06/18 07:43:24;;;;;;;2.50;1.08;;;22.10;99.90;;;;;;5025396;28;20226;-87
2022/06/18 07:45:50;;;;;;;3.53;1.15;;;22.40;99.90;;;;;;5027026;28;20226;-86
2022/06/18 07:48:16;;;;;;;2.33;1.33;;;23.10;99.90;;;;;;5027199;28;20604;-83
2022/06/18 07:50:44;;;;;;;4.95;1.30;;;25.40;99.90;;;;;;5026247;28;20218;-88
2022/06/18 07:53:21;;;;;;;1.42;1.20;;;25.70;99.90;;;;;;5024957;28;20233;-84
2022/06/18 07:55:47;;;;;;;1.02;0.93;;;25.00;99.90;;;;;;5026341;28;20225;-86
2022/06/18 07:58:14;;;;;;;1.02;1.02;;;23.70;99.90;;;;;;5025751;28;20215;-84
2022/06/18 08:00:40;;;;;;;6.25;1.40;;;23.20;99.90;;;;;;5022616;28;20293;-87
2022/06/18 08:03:07;;;;;;;2.58;1.42;;;23.80;99.90;;;;;;5022478;28;20617;-83
2022/06/18 08:05:33;;;;;;;1.20;1.10;;;24.40;99.90;;;;;;5023445;28;20716;-84
2022/06/18 08:07:59;;;;;;;6.40;1.50;;;24.20;99.90;;;;;;5022990;28;20219;-89
2022/06/18 08:10:25;;;;;;;3.10;1.50;;;23.70;99.90;;;;;;5023695;28;20683;-83
2022/06/18 08:12:51;;;;;;;1.60;0.90;;;25.20;99.90;;;;;;5021184;28;20606;-86
2022/06/18 08:15:18;;;;;;;4.13;1.17;;;25.60;99.90;;;;;;5021877;28;20187;-84
2022/06/18 08:17:44;;;;;;;4.15;1.60;;;24.90;99.90;;;;;;5021900;28;20245;-84
2022/06/18 08:20:10;;;;;;;2.55;1.00;;;24.00;99.90;;;;;;5022670;28;20231;-85
2022/06/18 08:22:39;;;;;;;2.22;1.15;;;22.90;99.90;;;;;;5023201;28;20211;-82
2022/06/18 08:25:06;;;;;;;2.05;1.25;;;22.60;99.90;;;;;;5025935;28;20238;-81
2022/06/18 08:27:32;;;;;;;5.70;2.00;;;23.10;99.90;;;;;;5024262;28;20253;-85
2022/06/18 08:29:58;;;;;;;2.50;0.90;;;23.30;99.90;;;;;;5024405;28;20190;-85
2022/06/18 08:32:24;;;;;;;4.57;1.45;;;24.20;99.90;;;;;;5023923;28;20186;-87
2022/06/18 08:34:49;;;;;;;1.85;1.10;;;23.60;99.90;;;;;;5024517;28;21383;-83
2022/06/18 08:37:15;;;;;;;3.10;1.00;;;24.50;99.90;;;;;;5025664;28;20218;-83
2022/06/18 08:39:41;;;;;;;2.13;1.00;;;23.50;99.90;;;;;;5025177;28;21024;-84
2022/06/18 08:42:32;;;;;;;1.50;1.10;;;23.70;99.90;;;;;;5025069;28;20201;-86
2022/06/18 08:45:01;;;;;;;2.75;1.17;;;23.10;99.90;;;;;;5020192;28;20234;-86
2022/06/18 08:48:04;;;;;;;3.10;1.20;;;23.80;99.90;;;;;;5026928;28;20656;-86
2022/06/18 08:50:48;;;;;;;2.58;1.20;;;24.90;99.90;;;;;;5025658;28;20210;-82
2022/06/18 08:53:44;;;;;;;2.05;1.15;;;25.20;99.90;;;;;;5056916;28;20220;-85
2022/06/18 08:56:23;;;;;;;1.63;0.80;;;25.70;99.90;;;;;;5024569;28;20218;-82
2022/06/18 08:58:55;;;;;;;2.40;1.02;;;26.00;99.90;;;;;;5057912;28;20211;-83
2022/06/18 09:01:31;;;;;;;4.03;1.25;;;24.80;99.90;;;;;;5041108;28;20233;-87
2022/06/18 09:04:32;;;;;;;3.03;0.85;;;25.60;99.90;;;;;;5030971;28;20245;-84
2022/06/18 09:07:10;;;;;;;2.50;1.00;;;25.10;99.90;;;;;;5019886;28;20808;-84
2022/06/18 09:10:11;;;;;;;1.55;0.93;;;25.60;99.90;;;;;;5023292;28;20222;-87
2022/06/18 09:13:12;;;;;;;1.65;0.88;;;24.70;99.90;;;;;;5022666;28;20217;-84
2022/06/18 09:15:43;;;;;;;0.82;0.77;;;24.60;99.90;;;;;;5025845;28;20218;-84
2022/06/18 09:18:19;;;;;;;1.35;0.88;;;24.40;99.90;;;;;;5025156;28;20174;-84
2022/06/18 09:20:48;;;;;;;2.78;0.95;;;23.70;99.90;;;;;;5025307;28;20194;-84
2022/06/18 09:23:22;;;;;;;1.77;0.90;;;24.40;99.90;;;;;;5022704;28;20687;-84
2022/06/18 09:25:51;;;;;;;1.88;1.13;;;24.60;99.90;;;;;;5023687;28;20218;-84
2022/06/18 09:28:32;;;;;;;0.70;0.70;;;24.20;99.90;;;;;;5022826;28;20207;-84
2022/06/18 09:31:10;;;;;;;2.55;1.00;;;25.40;99.90;;;;;;5023552;28;20244;-83
2022/06/18 09:33:53;;;;;;;1.10;1.00;;;26.30;99.90;;;;;;5025150;28;20214;-83
2022/06/18 09:36:23;;;;;;;3.15;0.98;;;26.30;99.90;;;;;;5025013;28;20222;-82
2022/06/18 09:39:01;;;;;;;3.70;1.00;;;24.70;99.90;;;;;;5056840;28;20191;-85
2022/06/18 09:41:38;;;;;;;1.40;0.80;;;25.30;99.90;;;;;;5024493;28;20276;-86
2022/06/18 09:44:26;;;;;;;3.20;1.00;;;27.30;99.90;;;;;;5024768;28;20699;-85
2022/06/18 09:46:58;;;;;;;2.47;0.90;;;28.00;99.90;;;;;;5024588;28;20315;-84
2022/06/18 09:49:24;;;;;;;2.70;1.00;;;25.90;99.90;;;;;;5023772;28;20229;-84
2022/06/18 09:52:04;;;;;;;3.75;1.25;;;25.60;99.90;;;;;;5007428;28;20202;-84
2022/06/18 09:54:40;;;;;;;0.95;0.90;;;25.70;99.90;;;;;;5025140;28;20210;-85
2022/06/18 09:57:06;;;;;;;4.20;1.08;;;27.00;99.90;;;;;;5026884;28;20547;-86
2022/06/18 09:59:43;;;;;;;2.25;0.95;;;26.50;99.90;;;;;;5026406;28;20286;-85
2022/06/18 10:02:23;;;;;;;1.98;0.90;;;25.70;99.90;;;;;;5025725;28;20226;-89
2022/06/18 10:07:40;;;;;;;2.83;1.00;;;26.30;99.90;;;;;;5024762;28;20218;-89
2022/06/18 10:10:09;;;;;;;2.15;0.88;;;25.70;99.90;;;;;;5007182;28;20246;-85
2022/06/18 10:12:42;;;;;;;2.10;0.98;;;25.60;99.90;;;;;;5026555;28;20287;-85
2022/06/18 10:15:12;;;;;;;1.48;0.93;;;24.90;99.90;;;;;;5058135;28;20302;-89
2022/06/18 10:18:21;;;;;;;2.25;0.90;;;25.40;99.90;;;;;;5026324;28;20191;-86
2022/06/18 10:20:56;;;;;;;5.47;0.80;;;24.50;99.90;;;;;;5057491;28;20206;-87
2022/06/18 10:23:43;;;;;;;5.05;1.33;;;25.20;99.90;;;;;;5056679;28;20201;-89
2022/06/18 10:26:27;;;;;;;5.13;1.15;;;25.80;99.90;;;;;;5024476;28;20218;-86
2022/06/18 10:29:01;;;;;;;1.42;1.10;;;26.30;99.90;;;;;;5022602;28;20233;-92
2022/06/18 10:31:45;;;;;;;1.92;1.00;;;25.70;99.90;;;;;;5025139;28;20221;-89
2022/06/18 10:34:28;;;;;;;2.28;1.45;;;26.60;99.90;;;;;;5025828;28;20237;-92
2022/06/18 10:37:28;;;;;;;2.28;1.25;;;25.90;99.90;;;;;;5025123;28;20218;-90
2022/06/18 10:40:14;;;;;;;3.00;1.10;;;24.50;99.90;;;;;;5025034;28;20218;-91
2022/06/18 10:43:02;;;;;;;3.35;1.17;;;24.30;99.90;;;;;;5025093;28;20226;-88
2022/06/18 10:45:39;;;;;;;8.07;1.60;;;24.80;99.90;;;;;;5039119;28;20703;-90
2022/06/18 10:48:12;;;;;;;13.93;1.55;;;25.30;99.90;;;;;;5025075;28;20563;-91
2022/06/18 10:50:46;;;;;;;1.95;0.93;;;25.60;99.90;;;;;;5025630;28;20229;-90
2022/06/18 10:53:16;;;;;;;5.82;0.98;;;25.90;99.90;;;;;;5023654;28;20223;-89
2022/06/18 10:55:43;;;;;;;3.15;0.98;;;26.30;99.90;;;;;;5024835;28;20219;-89
2022/06/18 10:58:15;;;;;;;2.08;1.00;;;26.80;99.90;;;;;;5025043;28;20220;-89
2022/06/18 11:01:11;;;;;;;2.70;0.82;;;26.00;99.90;;;;;;5025838;28;20526;-91
2022/06/18 11:03:37;;;;;;;2.78;1.33;;;24.20;99.90;;;;;;5024248;28;20279;-89
2022/06/18 11:06:11;;;;;;;4.93;1.00;;;24.60;99.90;;;;;;5025975;28;20191;-86
2022/06/18 11:08:38;;;;;;;2.92;1.17;;;24.70;99.90;;;;;;5058673;28;20669;-88
2022/06/18 11:11:06;;;;;;;3.80;0.80;;;23.80;99.90;;;;;;5040002;28;20222;-86
2022/06/18 11:13:36;;;;;;;3.33;1.00;;;23.30;99.90;;;;;;5025285;28;20222;-88
2022/06/18 11:16:11;;;;;;;3.42;1.27;;;23.50;99.90;;;;;;5025203;28;20210;-86
2022/06/18 11:18:47;;;;;;;3.00;1.05;;;23.40;99.90;;;;;;5024376;28;20563;-88
2022/06/18 11:21:25;;;;;;;2.33;1.23;;;23.20;99.90;;;;;;5025101;28;20182;-84
2022/06/18 11:23:55;;;;;;;2.20;1.33;;;22.80;99.90;;;;;;5057163;28;20276;-85
2022/06/18 11:26:23;;;;;;;2.08;1.10;;;22.70;99.90;;;;;;5024398;28;20222;-86
2022/06/18 11:28:52;;;;;;;4.95;1.48;;;22.40;99.90;;;;;;5028126;28;20217;-89
2022/06/18 11:31:24;;;;;;;3.90;1.23;;;22.60;99.90;;;;;;5028824;28;20226;-85
2022/06/18 11:33:58;;;;;;;4.38;1.33;;;22.80;99.90;;;;;;5027310;28;20329;-86
2022/06/18 11:36:34;;;;;;;2.83;1.27;;;22.50;99.90;;;;;;5028047;28;20278;-88
2022/06/18 11:39:02;;;;;;;5.00;1.20;;;22.50;99.90;;;;;;5029023;28;20647;-86
2022/06/18 11:41:45;;;;;;;3.50;1.52;;;22.80;99.90;;;;;;5027985;28;20651;-87
2022/06/18 11:44:36;;;;;;;7.00;1.50;;;22.60;99.90;;;;;;5026181;28;20237;-87
2022/06/18 11:47:06;;;;;;;5.68;1.60;;;22.50;99.90;;;;;;5023561;28;20226;-88
2022/06/18 11:49:59;;;;;;;4.55;1.25;;;22.00;99.90;;;;;;5027518;28;20230;-84
2022/06/18 11:52:41;;;;;;;1.30;1.15;;;21.90;99.90;;;;;;5027865;28;20245;-86
2022/06/18 11:55:23;;;;;;;6.47;1.42;;;22.10;99.90;;;;;;5028000;28;20234;-91
2022/06/18 11:57:52;;;;;;;5.43;1.38;;;22.20;99.90;;;;;;5028704;28;20215;-88
2022/06/18 12:00:22;;;;;;;3.80;1.20;;;22.00;99.90;;;;;;5025857;28;20273;-85
2022/06/18 12:03:00;;;;;;;4.75;1.33;;;22.20;99.90;;;;;;5024069;28;20226;-86
2022/06/18 12:05:35;;;;;;;4.22;0.90;;;21.70;99.90;;;;;;5025330;28;20226;-88
2022/06/18 12:08:03;;;;;;;5.88;1.10;;;21.70;99.90;;;;;;5025928;28;20768;-84
2022/06/18 12:10:44;;;;;;;3.17;1.15;;;22.00;99.90;;;;;;5029179;28;20218;-86
2022/06/18 12:13:27;;;;;;;3.53;1.10;;;22.10;99.90;;;;;;5027883;28;20252;-85
2022/06/18 12:16:04;;;;;;;3.17;1.27;;;21.80;99.90;;;;;;5059423;28;20641;-89
2022/06/18 12:19:00;;;;;;;4.90;1.60;;;21.50;99.90;;;;;;5028063;28;21181;-90
2022/06/18 12:21:41;;;;;;;3.58;1.08;;;21.40;99.90;;;;;;5027502;28;20249;-86
2022/06/18 12:24:39;;;;;;;2.47;1.00;;;21.60;99.90;;;;;;5027006;28;20214;-90
2022/06/18 12:27:07;;;;;;;5.38;1.30;;;21.50;99.90;;;;;;5026554;28;20266;-85
2022/06/18 12:30:04;;;;;;;3.93;1.00;;;21.40;99.90;;;;;;5027266;28;20186;-88
2022/06/18 12:32:48;;;;;;;5.90;1.23;;;21.70;99.90;;;;;;5027655;28;20215;-87
2022/06/18 12:35:44;;;;;;;1.57;0.87;;;21.90;99.90;;;;;;5027786;28;20222;-89
2022/06/18 12:38:16;;;;;;;6.47;0.90;;;21.30;99.90;;;;;;5024404;28;20744;-90
2022/06/18 12:40:59;;;;;;;3.63;1.03;;;21.70;99.90;;;;;;5027627;28;20246;-88
2022/06/18 12:43:31;;;;;;;4.90;1.27;;;21.60;99.90;;;;;;5027425;28;20229;-86
2022/06/18 12:46:07;;;;;;;6.28;1.73;;;21.50;99.90;;;;;;5043250;28;20737;-90
2022/06/18 12:48:36;;;;;;;2.67;1.37;;;21.70;99.90;;;;;;5025866;28;20647;-88
2022/06/18 12:51:25;;;;;;;3.63;1.03;;;21.60;99.90;;;;;;5035556;28;20245;-88
2022/06/18 12:54:06;;;;;;;2.27;1.50;;;21.60;99.90;;;;;;5026318;28;20182;-87
2022/06/18 12:56:41;;;;;;;5.00;1.33;;;21.50;99.90;;;;;;5025477;28;20685;-90
2022/06/18 12:59:56;;;;;;;3.67;1.23;;;21.80;99.90;;;;;;5034143;28;20757;-86
2022/06/18 13:02:33;;;;;;;4.60;1.00;;;21.80;99.90;;;;;;5041375;28;20275;-88
2022/06/18 13:05:19;;;;;;;3.00;1.73;;;21.50;99.90;;;;;;5025825;28;20297;-90
2022/06/18 13:08:10;;;;;;;7.20;1.90;;;21.80;99.90;;;;;;5026012;28;20329;-85
2022/06/18 13:10:39;;;;;;;3.13;1.40;;;22.30;99.90;;;;;;5025498;28;20250;-87
2022/06/18 13:13:36;;;;;;;2.70;1.13;;;21.60;99.90;;;;;;5024294;28;21123;-88
2022/06/18 13:16:21;;;;;;;5.38;2.00;;;21.60;99.90;;;;;;5025860;28;20218;-89
2022/06/18 13:18:55;;;;;;;1.88;1.33;;;21.30;99.90;;;;;;5026064;28;20573;-86
2022/06/18 13:21:21;;;;;;;3.67;0.90;;;21.50;99.90;;;;;;5039933;28;20264;-87
2022/06/18 13:29:40;;;;;;;3.20;1.00;;;20.40;99.90;;;;;;5024487;28;20943;-89
2022/06/18 13:32:32;;;;;;;2.53;1.50;;;19.90;99.90;;;;;;5024947;28;20321;-87